Time;durP1;ratioP1;P1;durP2;ratioP2;P2;SDS_P1;SDS_P2;PMS_P1;PMS_P2;Temp;Humidity;BMP_temperature;BMP_pressure;BME280_temperature;BME280_humidity;BME280_pressure;Samples;Min_cycle;Max_cycle;Signal;HPM_P1;HPM_P2
2022/05/13 00:00:22;;;;;;;;;3.00;3.00;;;;;31.12;100.00;101204.91;5082524;27;51092;-45
2022/05/13 00:03:07;;;;;;;;;2.50;2.50;;;;;31.19;100.00;101211.66;5072277;27;51068;-44
2022/05/13 00:05:52;;;;;;;;;4.50;4.50;;;;;31.20;100.00;101202.41;5062399;28;51339;-44
2022/05/13 00:08:37;;;;;;;;;5.50;3.25;;;;;31.18;100.00;101191.53;5062082;28;51173;-45
2022/05/13 00:11:21;;;;;;;;;5.75;3.50;;;;;31.19;100.00;101192.41;5062192;28;51142;-47
2022/05/13 00:14:08;;;;;;;;;2.75;2.00;;;;;31.18;100.00;101191.53;5062465;28;51043;-45
2022/05/13 00:16:52;;;;;;;;;4.75;3.25;;;;;31.18;100.00;101177.78;5061865;28;51016;-46
2022/05/13 00:19:38;;;;;;;;;5.00;2.50;;;;;31.12;100.00;101163.69;5061975;28;51168;-45
2022/05/13 00:22:23;;;;;;;;;2.00;2.00;;;;;31.10;100.00;101155.53;5062289;28;51314;-46
2022/05/13 00:25:08;;;;;;;;;5.50;4.00;;;;;31.10;100.00;101165.69;5061530;28;51098;-46
2022/05/13 00:27:55;;;;;;;;;3.75;2.00;;;;;31.07;100.00;101161.28;5061970;28;51419;-45
2022/05/13 00:30:42;;;;;;;;;5.00;3.50;;;;;30.92;100.00;101163.47;5061350;28;51491;-45
2022/05/13 00:33:27;;;;;;;;;4.25;4.25;;;;;31.03;100.00;101162.56;5061684;28;51510;-45
2022/05/13 00:36:11;;;;;;;;;5.00;3.50;;;;;30.91;100.00;101158.97;5061705;28;51062;-45
2022/05/13 00:38:56;;;;;;;;;7.50;3.50;;;;;30.98;100.00;101151.97;5061751;28;51057;-44
2022/05/13 00:41:41;;;;;;;;;7.00;2.25;;;;;31.00;100.00;101149.97;5061255;27;51465;-44
2022/05/13 00:44:25;;;;;;;;;3.50;3.00;;;;;31.00;100.00;101141.72;5057889;28;51065;-44
2022/05/13 00:47:11;;;;;;;;;4.50;1.25;;;;;31.00;100.00;101136.22;5061581;28;51117;-46
2022/05/13 00:49:56;;;;;;;;;4.00;3.50;;;;;31.01;100.00;101137.09;5061086;28;51177;-44
2022/05/13 00:52:43;;;;;;;;;2.75;1.75;;;;;30.98;100.00;101135.47;5076660;27;51090;-44
2022/05/13 00:55:32;;;;;;;;;5.75;2.75;;;;;30.94;100.00;101131.22;5061596;28;51481;-45
2022/05/13 00:58:17;;;;;;;;;4.00;1.00;;;;;30.92;100.00;101122.25;5076176;27;51067;-45
2022/05/13 01:01:02;;;;;;;;;4.00;3.00;;;;;30.95;100.00;101121.13;5061105;28;51071;-45
2022/05/13 01:03:50;;;;;;;;;4.00;2.25;;;;;30.94;100.00;101124.88;5061443;28;51166;-45
2022/05/13 01:06:35;;;;;;;;;5.00;4.00;;;;;30.90;100.00;101121.53;5075223;27;51439;-46
2022/05/13 01:09:21;;;;;;;;;3.25;3.00;;;;;30.83;100.00;101117.53;5061062;28;51057;-44
2022/05/13 01:12:08;;;;;;;;;3.25;3.00;;;;;30.77;100.00;101113.41;5061218;28;51447;-45
2022/05/13 01:14:57;;;;;;;;;3.00;3.00;;;;;30.88;100.00;101105.16;5060951;28;51118;-44
2022/05/13 01:20:48;;;;;;;;;2.00;2.00;;;;;30.88;100.00;101096.91;5060530;28;51446;-44
2022/05/13 01:23:41;;;;;;;;;5.25;3.00;;;;;30.86;100.00;101098.03;5060563;28;51166;-46
2022/05/13 01:26:29;;;;;;;;;5.50;3.00;;;;;30.79;100.00;101080.34;5060868;28;51177;-45
2022/05/13 01:29:14;;;;;;;;;7.50;3.00;;;;;30.76;100.00;101079.59;5060876;28;51157;-46
2022/05/13 01:31:58;;;;;;;;;4.00;2.00;;;;;30.82;100.00;101086.44;5060434;28;51108;-44
2022/05/13 01:34:42;;;;;;;;;6.25;4.50;;;;;30.82;100.00;101088.31;5060554;28;51087;-45
2022/05/13 01:37:27;;;;;;;;;6.25;2.50;;;;;30.77;100.00;101083.19;5060780;28;52500;-45
2022/05/13 01:40:12;;;;;;;;;8.00;4.25;;;;;30.77;100.00;101094.19;5060342;28;51120;-45
2022/05/13 01:42:56;;;;;;;;;5.00;3.75;;;;;30.79;100.00;101086.69;5060717;28;51090;-45
2022/05/13 01:45:41;;;;;;;;;10.25;7.75;;;;;30.83;100.00;101084.56;5060299;28;51410;-48
2022/05/13 01:48:27;;;;;;;;;23.25;19.00;;;;;30.78;100.00;101076.72;5060296;28;51089;-47
2022/05/13 01:51:12;;;;;;;;;25.75;23.25;;;;;30.83;100.00;101082.69;5060007;28;51166;-45
2022/05/13 01:53:56;;;;;;;;;33.75;27.75;;;;;30.85;100.00;101077.06;5060556;28;51133;-46
2022/05/13 01:56:40;;;;;;;;;30.25;27.75;;;;;30.87;100.00;101077.81;5060146;28;51206;-45
2022/05/13 01:59:25;;;;;;;;;29.75;25.75;;;;;30.87;100.00;101083.31;5059527;28;51192;-45
2022/05/13 02:02:09;;;;;;;;;37.75;31.00;;;;;30.90;100.00;101078.41;5060488;28;51671;-47
2022/05/13 02:04:53;;;;;;;;;33.00;30.75;;;;;30.92;100.00;101075.53;5060194;28;51109;-46
2022/05/13 02:07:39;;;;;;;;;38.50;32.00;;;;;30.87;100.00;101075.06;5078175;27;51046;-46
2022/05/13 02:10:24;;;;;;;;;29.75;28.75;;;;;30.80;100.00;101079.31;5080155;27;51566;-45
2022/05/13 02:13:08;;;;;;;;;30.75;29.00;;;;;30.83;100.00;101081.81;5080252;27;51474;-47
2022/05/13 02:15:53;;;;;;;;;32.50;24.50;;;;;30.79;100.00;101080.34;5079827;27;51119;-45
2022/05/13 02:18:39;;;;;;;;;23.50;21.25;;;;;30.76;100.00;101078.72;5080669;27;51103;-46
2022/05/13 02:21:24;;;;;;;;;27.00;24.25;;;;;30.74;100.00;101076.09;5080126;27;51139;-46
2022/05/13 02:24:09;;;;;;;;;28.25;26.00;;;;;30.73;100.00;101068.00;5080243;27;51160;-46
2022/05/13 02:26:54;;;;;;;;;33.00;29.75;;;;;30.70;100.00;101066.38;5080090;27;51487;-46
2022/05/13 02:29:38;;;;;;;;;31.00;28.50;;;;;30.67;100.00;101068.50;5079885;27;51119;-45
2022/05/13 02:32:24;;;;;;;;;34.25;30.00;;;;;30.65;100.00;101073.25;5080267;27;51060;-45
2022/05/13 02:35:09;;;;;;;;;29.00;27.00;;;;;30.55;100.00;101056.69;5080010;28;51369;-46
2022/05/13 02:37:54;;;;;;;;;37.75;29.75;;;;;30.53;100.00;101066.91;5057835;28;51092;-46
2022/05/13 02:43:48;;;;;;;;;34.75;30.00;;;;;30.48;100.00;101070.00;5059848;28;51222;-46
2022/05/13 02:46:33;;;;;;;;;31.50;28.00;;;;;30.44;100.00;101072.16;5059247;28;51177;-46
2022/05/13 02:49:17;;;;;;;;;34.75;29.50;;;;;30.40;100.00;101076.13;5059585;28;51181;-45
2022/05/13 02:52:02;;;;;;;;;25.00;24.00;;;;;30.34;100.00;101068.41;5059729;28;51140;-45
2022/05/13 02:54:47;;;;;;;;;27.75;24.25;;;;;30.33;100.00;101082.25;5059158;28;51032;-46
2022/05/13 02:57:32;;;;;;;;;26.50;23.50;;;;;30.32;100.00;101086.03;5059475;28;51140;-47
2022/05/13 03:00:16;;;;;;;;;23.25;19.75;;;;;30.29;100.00;101104.47;5058919;28;51406;-45
2022/05/13 03:03:01;;;;;;;;;30.75;26.50;;;;;30.26;100.00;101110.22;5059368;28;51401;-44
2022/05/13 03:05:45;;;;;;;;;35.75;32.00;;;;;30.18;100.00;101103.59;5059287;28;51122;-45
2022/05/13 03:08:29;;;;;;;;;43.00;34.00;;;;;30.18;100.00;101118.22;5059689;28;51023;-46
2022/05/13 03:11:14;;;;;;;;;54.00;41.00;;;;;30.17;100.00;101116.47;5059944;28;51451;-45
2022/05/13 03:13:59;;;;;;;;;47.75;37.25;;;;;30.17;100.00;101121.94;5063197;28;51111;-45
2022/05/13 03:16:43;;;;;;;;;45.25;35.00;;;;;30.16;100.00;101125.69;5063493;28;52007;-46
2022/05/13 03:19:28;;;;;;;;;35.00;29.75;;;;;30.13;100.00;101132.31;5062815;28;51111;-48
2022/05/13 03:22:12;;;;;;;;;47.00;32.00;;;;;30.11;100.00;101131.53;5063539;28;51099;-48
2022/05/13 03:24:56;;;;;;;;;39.75;33.00;;;;;30.11;100.00;101125.16;5062953;28;51162;-46
2022/05/13 03:27:42;;;;;;;;;43.25;33.50;;;;;30.00;100.00;101134.28;5063067;28;51585;-47
2022/05/13 03:30:26;;;;;;;;;32.25;25.50;;;;;30.02;100.00;101118.56;5062497;28;51129;-46
2022/05/13 03:33:11;;;;;;;;;35.25;29.50;;;;;30.06;100.00;101128.28;5063315;28;51011;-49
2022/05/13 03:35:56;;;;;;;;;27.25;24.75;;;;;30.06;100.00;101124.69;5062575;28;51568;-47
2022/05/13 03:38:41;;;;;;;;;35.25;30.00;;;;;30.06;100.00;101128.28;5062746;28;51162;-46
2022/05/13 03:41:25;;;;;;;;;33.00;29.75;;;;;30.05;100.00;101128.41;5062732;28;51523;-46
2022/05/13 03:44:10;;;;;;;;;30.25;27.00;;;;;30.04;100.00;101135.78;5062692;28;51102;-45
2022/05/13 03:46:55;;;;;;;;;27.75;25.50;;;;;30.03;100.00;101135.88;5062728;28;51163;-46
2022/05/13 03:49:39;;;;;;;;;25.50;25.00;;;;;29.99;100.00;101138.00;5062620;28;51150;-45
2022/05/13 03:52:24;;;;;;;;;31.25;25.50;;;;;30.02;100.00;101146.00;5062222;28;51212;-45
2022/05/13 03:55:09;;;;;;;;;26.00;20.50;;;;;30.01;100.00;101147.00;5062200;28;51353;-44
2022/05/13 03:57:54;;;;;;;;;23.25;19.75;;;;;29.96;100.00;101143.72;5062728;28;51040;-46
2022/05/13 04:00:38;;;;;;;;;22.00;21.00;;;;;29.87;100.00;101138.94;5062348;28;51537;-47
2022/05/13 04:03:23;;;;;;;;;23.50;19.25;;;;;29.94;100.00;101156.72;5062209;28;51184;-49
2022/05/13 04:09:11;;;;;;;;;21.50;20.25;;;;;29.97;100.00;101156.47;5062057;28;51199;-45
2022/05/13 04:18:03;;;;;;;;;24.50;21.50;;;;;29.94;100.00;101157.59;5062341;28;51471;-45
2022/05/13 04:20:47;;;;;;;;;19.00;19.00;;;;;29.94;100.00;101170.44;5061664;28;51172;-46
2022/05/13 04:23:37;;;;;;;;;24.75;21.00;;;;;29.94;100.00;101162.22;5061815;28;52381;-44
2022/05/13 04:26:22;;;;;;;;;17.00;17.00;;;;;29.86;100.00;101151.81;5061438;28;51449;-46
2022/05/13 04:29:06;;;;;;;;;24.25;22.00;;;;;29.94;100.00;101156.72;5061256;28;51114;-44
2022/05/13 04:31:51;;;;;;;;;23.25;16.50;;;;;29.88;100.00;101151.66;5061898;28;51532;-45
2022/05/13 04:34:36;;;;;;;;;20.75;18.75;;;;;29.84;100.00;101154.66;5061280;28;51120;-47
2022/05/13 04:37:20;;;;;;;;;22.50;18.25;;;;;29.92;100.00;101166.91;5061799;28;51048;-47
2022/05/13 04:40:05;;;;;;;;;23.50;20.25;;;;;29.86;100.00;101172.84;5061555;28;51156;-46
2022/05/13 04:42:50;;;;;;;;;20.00;19.00;;;;;29.93;100.00;101177.78;5081932;27;51408;-47
2022/05/13 04:45:34;;;;;;;;;25.25;20.75;;;;;29.93;100.00;101171.41;5081519;27;51129;-49
2022/05/13 04:48:21;;;;;;;;;22.50;19.00;;;;;29.74;100.00;101159.13;5082081;27;51121;-47
2022/05/13 04:51:07;;;;;;;;;24.00;20.75;;;;;29.87;100.00;101180.09;5059929;28;51512;-46
2022/05/13 04:53:52;;;;;;;;;24.00;23.00;;;;;29.79;100.00;101187.06;5061471;28;51153;-46
2022/05/13 04:56:37;;;;;;;;;29.75;26.25;;;;;29.83;100.00;101180.34;5061467;28;51177;-45
2022/05/13 04:59:21;;;;;;;;;33.00;29.25;;;;;29.86;100.00;101186.56;5061150;28;51189;-46
2022/05/13 05:02:06;;;;;;;;;34.50;30.50;;;;;29.85;100.00;101191.19;5061384;28;51015;-46
2022/05/13 05:04:50;;;;;;;;;41.25;32.75;;;;;29.79;100.00;101178.84;5060935;28;51063;-46
2022/05/13 05:07:34;;;;;;;;;34.75;31.25;;;;;29.80;100.00;101188.81;5077195;27;51151;-45
2022/05/13 05:10:21;;;;;;;;;31.00;28.75;;;;;29.72;100.00;101184.91;5063656;27;51163;-45
2022/05/13 05:13:07;;;;;;;;;29.50;24.50;;;;;29.67;100.00;101197.13;5061209;27;51641;-45
2022/05/13 05:15:52;;;;;;;;;28.75;27.75;;;;;29.62;100.00;101187.53;5060939;28;51459;-45
2022/05/13 05:18:38;;;;;;;;;36.75;30.00;;;;;29.57;100.00;101192.47;5060619;28;51186;-45
2022/05/13 05:21:23;;;;;;;;;40.00;33.25;;;;;29.51;100.00;101185.59;5060944;28;51574;-45
2022/05/13 05:24:07;;;;;;;;;38.50;33.00;;;;;29.50;100.00;101186.59;5060640;28;51110;-46
2022/05/13 05:26:52;;;;;;;;;38.50;32.25;;;;;29.48;100.00;101192.19;5060897;28;51143;-45
2022/05/13 05:29:37;;;;;;;;;38.00;33.00;;;;;29.50;100.00;101197.53;5060467;28;51193;-45
2022/05/13 05:32:21;;;;;;;;;43.50;35.25;;;;;29.50;100.00;101189.31;5060746;28;51086;-45
2022/05/13 05:35:08;;;;;;;;;37.25;32.25;;;;;29.53;100.00;101192.69;5059785;28;51414;-45
2022/05/13 05:37:53;;;;;;;;;40.00;34.50;;;;;29.53;100.00;101175.38;5060934;28;51190;-45
2022/05/13 05:40:39;;;;;;;;;44.50;35.50;;;;;29.54;100.00;101179.88;5060054;28;51445;-45
2022/05/13 05:43:24;;;;;;;;;44.00;32.50;;;;;29.56;100.00;101177.91;5060342;28;52294;-45
2022/05/13 05:46:08;;;;;;;;;49.00;38.00;;;;;29.63;100.00;101187.38;5060468;28;51603;-47
2022/05/13 05:48:53;;;;;;;;;49.75;40.00;;;;;29.67;100.00;101190.75;5060244;28;51062;-47
2022/05/13 05:51:38;;;;;;;;;52.00;42.25;;;;;29.80;100.00;101179.69;5060315;28;51462;-46
2022/05/13 05:57:26;;;;;;;;;54.00;42.00;;;;;30.25;100.00;101190.81;5080544;27;51172;-46
2022/05/13 06:00:11;;;;;;;;;53.00;42.00;;;;;30.51;100.00;101193.31;5080294;27;51157;-47
2022/05/13 06:02:56;;;;;;;;;48.25;40.50;;;;;30.83;100.00;101195.34;5080791;27;51106;-45
2022/05/13 06:05:42;;;;;;;;;54.25;40.50;;;;;31.19;100.00;101198.78;5079867;27;51150;-45
2022/05/13 06:08:27;;;;;;;;;48.50;39.00;;;;;31.55;100.00;101206.75;5079138;27;51631;-49
2022/05/13 06:11:11;;;;;;;;;44.75;37.75;;;;;31.89;100.00;101203.88;5080330;27;51572;-46
2022/05/13 06:13:58;;;;;;;;;45.25;37.00;;;;;32.33;100.00;101205.63;5080290;27;51071;-47
2022/05/13 06:16:42;;;;;;;;;46.50;36.75;;;;;32.87;100.00;101212.72;5078895;27;51307;-48
2022/05/13 06:19:27;;;;;;;;;50.50;39.00;;;;;33.26;100.00;101202.78;5079842;27;51181;-45
2022/05/13 06:22:11;;;;;;;;;46.75;38.50;;;;;34.03;100.00;101212.13;5080094;27;51885;-46
2022/05/13 06:24:55;;;;;;;;;52.50;42.25;;;;;34.75;100.00;101220.78;5079493;27;51219;-46
2022/05/13 06:27:40;;;;;;;;;52.75;41.00;;;;;35.35;100.00;101227.72;5080219;27;51078;-46
2022/05/13 06:30:27;;;;;;;;;51.75;41.75;;;;;35.89;100.00;101226.84;5079300;27;51177;-46
2022/05/13 06:33:12;;;;;;;;;51.50;42.50;;;;;36.44;100.00;101230.41;5080066;27;51125;-45
2022/05/13 06:35:56;;;;;;;;;52.25;40.75;;;;;36.97;100.00;101227.56;5080010;28;51160;-46
2022/05/13 06:38:41;;;;;;;;;50.25;41.25;;;;;37.62;100.00;101226.84;5080088;28;51218;-47
2022/05/13 06:41:26;;;;;;;;;46.00;35.50;;;;;38.55;100.00;101235.84;5079814;28;51050;-46
2022/05/13 06:44:11;;;;;;;;;46.00;38.00;;;;;39.53;100.00;101243.94;5079707;28;51074;-46
2022/05/13 06:46:56;;;;;;;;;44.00;35.50;;;;;40.55;100.00;101252.97;5083709;27;51643;-45
2022/05/13 06:49:41;;;;;;;;;38.00;33.25;;;;;41.56;100.00;101263.53;5060857;28;51217;-47
2022/05/13 06:52:25;;;;;;;;;46.00;36.75;;;;;42.18;97.98;101261.09;5063910;28;51039;-46
2022/05/13 06:55:12;;;;;;;;;44.50;36.00;;;;;42.94;94.11;101269.78;5054029;28;51126;-46
2022/05/13 06:57:58;;;;;;;;;48.50;37.25;;;;;43.41;92.74;101284.88;5060920;28;51111;-50
2022/05/13 07:00:44;;;;;;;;;47.00;37.75;;;;;43.31;91.79;101285.25;5063591;28;51183;-47
2022/05/13 07:03:28;;;;;;;;;48.25;36.50;;;;;43.19;89.72;101289.72;5063533;28;51064;-47
2022/05/13 07:06:13;;;;;;;;;45.00;37.00;;;;;43.31;89.48;101287.22;5063353;28;51118;-47
2022/05/13 07:08:57;;;;;;;;;40.75;35.25;;;;;43.55;88.31;101302.56;5063267;28;51209;-46
2022/05/13 07:11:42;;;;;;;;;40.50;31.50;;;;;43.90;87.78;101318.38;5063312;28;51551;-48
2022/05/13 07:14:26;;;;;;;;;43.75;36.00;;;;;44.45;86.40;101329.44;5063229;28;51074;-46
2022/05/13 07:17:11;;;;;;;;;45.00;35.00;;;;;44.98;84.98;101324.84;5063369;28;51180;-46
2022/05/13 07:19:55;;;;;;;;;38.00;32.25;;;;;45.44;83.91;101320.97;5062456;28;51337;-45
2022/05/13 07:22:40;;;;;;;;;40.50;33.50;;;;;45.90;82.08;101323.75;5062275;28;51230;-45
2022/05/13 07:25:26;;;;;;;;;32.25;28.25;;;;;46.39;80.20;101322.06;5063363;28;51612;-46
2022/05/13 07:28:10;;;;;;;;;38.00;28.75;;;;;46.86;79.60;101329.19;5063144;28;51309;-49
2022/05/13 07:30:55;;;;;;;;;34.25;28.50;;;;;47.32;77.46;101326.91;5062597;28;51031;-47
2022/05/13 07:33:39;;;;;;;;;31.00;28.50;;;;;47.85;76.31;101333.72;5063080;28;51117;-48
2022/05/13 07:36:23;;;;;;;;;34.75;29.25;;;;;48.33;73.81;101334.72;5062750;28;51589;-47
2022/05/13 07:42:12;;;;;;;;;22.25;21.00;;;;;48.91;70.90;101353.84;5063249;28;51096;-47
2022/05/13 07:44:57;;;;;;;;;23.50;21.00;;;;;49.14;69.63;101361.44;5058885;28;51142;-48
2022/05/13 07:47:42;;;;;;;;;18.75;17.75;;;;;49.24;68.19;101355.13;5062475;28;51199;-45
2022/05/13 07:50:28;;;;;;;;;27.25;20.50;;;;;49.33;67.91;101364.94;5059016;28;51444;-52
2022/05/13 07:53:12;;;;;;;;;18.50;18.00;;;;;49.59;66.49;101371.97;5062619;28;51026;-48
2022/05/13 07:55:58;;;;;;;;;22.75;19.75;;;;;49.88;66.07;101380.50;5062025;28;51099;-50
2022/05/13 07:58:42;;;;;;;;;25.75;22.75;;;;;50.03;64.39;101377.06;5056145;28;51296;-46
2022/05/13 08:01:27;;;;;;;;;28.00;25.00;;;;;49.73;64.28;101385.81;5058738;28;51486;-47
2022/05/13 08:04:12;;;;;;;;;24.25;20.50;;;;;48.02;65.02;101369.75;5042821;28;51071;-49
2022/05/13 08:06:57;;;;;;;;;20.50;20.25;;;;;46.59;65.90;101368.00;5062104;28;51126;-49
2022/05/13 08:09:41;;;;;;;;;19.50;17.75;;;;;45.17;67.66;101368.84;5061028;28;51362;-47
2022/05/13 08:12:26;;;;;;;;;17.50;16.00;;;;;44.13;69.42;101365.69;5060844;28;51125;-45
2022/05/13 08:15:10;;;;;;;;;19.00;18.75;;;;;43.20;71.46;101369.88;5061203;28;51139;-48
2022/05/13 08:17:55;;;;;;;;;15.25;14.50;;;;;42.47;73.38;101359.88;5060782;28;51118;-47
2022/05/13 08:20:40;;;;;;;;;17.50;16.00;;;;;41.77;74.65;101374.44;5060458;28;51491;-45
2022/05/13 08:23:25;;;;;;;;;17.00;16.50;;;;;41.23;75.38;101372.84;5060773;28;51211;-46
2022/05/13 08:26:11;;;;;;;;;18.00;14.75;;;;;40.69;76.95;101371.19;5061861;28;51150;-47
2022/05/13 08:28:56;;;;;;;;;49.75;38.75;;;;;40.26;78.47;101366.19;5047077;28;51157;-48
2022/05/13 08:31:40;;;;;;;;;29.75;23.50;;;;;39.95;79.30;101361.50;5021277;28;51161;-47
2022/05/13 08:34:25;;;;;;;;;22.75;22.25;;;;;39.67;80.70;101364.78;5020554;28;51554;-46
2022/05/13 08:37:09;;;;;;;;;33.25;26.50;;;;;39.41;82.15;101348.41;5020596;28;51448;-45
2022/05/13 08:39:53;;;;;;;;;27.75;25.00;;;;;39.29;82.51;101359.06;5018914;28;51172;-48
2022/05/13 08:42:44;;;;;;;;;33.00;28.50;;;;;39.05;82.91;101361.72;5021116;28;51195;-46
2022/05/13 08:45:29;;;;;;;;;41.50;34.50;;;;;38.94;83.88;101376.03;5019754;28;51509;-47
2022/05/13 08:48:15;;;;;;;;;25.50;24.75;;;;;38.75;83.88;101371.69;5019212;28;52495;-47
2022/05/13 08:51:38;;;;;;;;;21.25;15.25;;;;;38.39;84.75;101386.88;5019042;28;51237;-49
2022/05/13 08:54:26;;;;;;;;;29.75;25.75;;;;;37.96;86.23;101372.22;5014288;28;51051;-47
2022/05/13 08:57:11;;;;;;;;;20.75;20.75;;;;;37.66;87.47;101369.84;5020728;28;51121;-48
2022/05/13 09:00:01;;;;;;;;;20.25;18.75;;;;;37.43;87.95;101360.41;5021310;28;51077;-48
2022/05/13 09:03:01;;;;;;;;;16.25;14.75;;;;;37.16;88.87;101366.00;5019832;28;51080;-47
2022/05/13 09:05:51;;;;;;;;;15.25;14.75;;;;;37.03;90.26;101368.38;5038944;28;51185;-49
2022/05/13 09:08:35;;;;;;;;;16.75;12.50;;;;;36.93;90.81;101353.75;5038693;28;51101;-44
2022/05/13 09:11:31;;;;;;;;;17.50;13.25;;;;;36.90;91.77;101353.03;5039194;28;51436;-46
2022/05/13 09:14:32;;;;;;;;;15.25;11.50;;;;;36.86;92.15;101354.34;5040308;28;51439;-46
2022/05/13 09:17:39;;;;;;;;;9.75;9.50;;;;;36.81;92.44;101358.66;5039631;28;51423;-48
2022/05/13 09:20:25;;;;;;;;;11.00;11.00;;;;;36.74;93.03;101375.06;5039500;28;51198;-48
2022/05/13 09:23:11;;;;;;;;;13.50;10.75;;;;;36.71;93.32;101376.28;5040273;28;51091;-47
2022/05/13 09:26:03;;;;;;;;;12.00;8.75;;;;;36.66;94.14;101381.44;5039138;28;51074;-49
2022/05/13 09:29:08;;;;;;;;;10.75;9.00;;;;;36.43;94.80;101381.97;5040331;28;51109;-47
2022/05/13 09:32:00;;;;;;;;;17.00;12.75;;;;;36.23;95.54;101384.00;5079898;27;51164;-46
2022/05/13 09:34:53;;;;;;;;;12.00;8.50;;;;;36.07;95.84;101381.09;5080590;27;51018;-46
2022/05/13 09:37:45;;;;;;;;;16.75;13.00;;;;;35.91;96.45;101382.63;5078754;27;51561;-44
2022/05/13 09:40:33;;;;;;;;;13.50;11.00;;;;;35.82;96.55;101366.94;5079423;27;51168;-45
2022/05/13 09:43:36;;;;;;;;;11.00;9.25;;;;;35.80;96.85;101358.81;5080295;27;51145;-48
2022/05/13 09:46:34;;;;;;;;;11.75;9.50;;;;;35.83;97.04;101343.78;5079996;27;51179;-44
2022/05/13 09:49:36;;;;;;;;;12.00;10.50;;;;;35.84;96.57;101349.16;5079904;27;51131;-46
2022/05/13 09:52:34;;;;;;;;;11.00;8.50;;;;;35.78;97.10;101347.03;5078522;27;51219;-46
2022/05/13 09:55:34;;;;;;;;;10.25;6.50;;;;;35.73;97.30;101351.28;5056767;27;51334;-44
2022/05/13 09:58:23;;;;;;;;;7.25;7.00;;;;;35.65;97.73;101341.88;5059717;28;51138;-45
2022/05/13 10:01:11;;;;;;;;;8.75;8.50;;;;;35.65;98.03;101350.19;5059741;28;51118;-45
2022/05/13 10:04:08;;;;;;;;;14.25;8.00;;;;;35.65;98.19;101349.28;5059920;28;51519;-46
2022/05/13 10:07:08;;;;;;;;;8.75;8.00;;;;;35.59;98.35;101361.00;5059839;28;51557;-47
2022/05/13 10:16:18;;;;;;;;;7.25;7.25;;;;;35.51;99.15;101351.56;5065121;27;51186;-47
2022/05/13 10:19:23;;;;;;;;;8.00;7.50;;;;;35.44;99.70;101355.13;5039630;28;51412;-50
2022/05/13 10:22:34;;;;;;;;;10.50;6.75;;;;;35.39;100.00;101347.25;5048387;27;51201;-48
2022/05/13 10:25:22;;;;;;;;;9.00;9.00;;;;;35.33;100.00;101342.31;5079787;27;51244;-46
2022/05/13 10:28:13;;;;;;;;;9.25;8.00;;;;;35.34;100.00;101350.47;5079464;27;51224;-48
2022/05/13 10:31:08;;;;;;;;;10.25;9.25;;;;;35.32;100.00;101340.56;5079693;27;51259;-49
2022/05/13 10:34:14;;;;;;;;;10.50;7.50;;;;;35.27;100.00;101345.72;5055494;28;51246;-49
2022/05/13 10:37:14;;;;;;;;;7.50;7.00;;;;;35.22;100.00;101338.72;5059599;28;51224;-46
2022/05/13 10:40:03;;;;;;;;;13.25;9.75;;;;;35.22;100.00;101335.09;5052153;28;51197;-44
2022/05/13 10:43:19;;;;;;;;;11.00;8.75;;;;;35.23;100.00;101325.78;5057653;28;51365;-49
2022/05/13 10:46:37;;;;;;;;;8.75;6.00;;;;;35.15;100.00;101314.59;5058723;28;51213;-49
2022/05/13 10:49:34;;;;;;;;;7.25;7.25;;;;;35.03;100.00;101316.72;5058218;28;51096;-46
2022/05/13 10:52:40;;;;;;;;;9.00;6.00;;;;;34.90;100.00;101305.97;5062950;27;51199;-46
2022/05/13 10:55:55;;;;;;;;;11.50;8.75;;;;;34.87;100.00;101309.88;5059064;28;51154;-44
2022/05/13 10:58:55;;;;;;;;;7.50;6.25;;;;;34.83;100.00;101310.34;5058036;28;51396;-50
2022/05/13 11:02:18;;;;;;;;;8.00;6.00;;;;;34.75;100.00;101309.22;5047645;28;51398;-47
2022/05/13 11:05:11;;;;;;;;;4.75;3.00;;;;;34.72;100.00;101298.44;5065213;28;51242;-47
2022/05/13 11:08:22;;;;;;;;;6.25;4.25;;;;;34.70;100.00;101283.94;5078343;28;51121;-49
2022/05/13 11:11:43;;;;;;;;;5.00;3.75;;;;;34.72;100.00;101279.09;5066977;27;51225;-46
2022/05/13 11:14:42;;;;;;;;;8.75;6.00;;;;;34.70;100.00;101270.13;5079018;28;51185;-44
2022/05/13 11:17:37;;;;;;;;;6.50;5.00;;;;;34.66;100.00;101257.63;5077790;28;51502;-45
2022/05/13 11:20:50;;;;;;;;;4.50;4.50;;;;;34.54;100.00;101258.81;5078496;28;51373;-45
2022/05/13 11:25:54;;;;;;;;;3.75;3.00;;;;;34.46;100.00;101245.75;5020299;28;51234;-46
2022/05/13 11:26:59;;;;;;;;;5.00;3.50;;;;;34.43;100.00;101246.06;5077716;28;51074;-45
2022/05/13 11:29:47;;;;;;;;;4.50;4.00;;;;;34.37;100.00;101243.84;5077438;28;51364;-45
2022/05/13 11:32:38;;;;;;;;;9.75;8.75;;;;;34.40;100.00;101243.59;5080279;27;51385;-45
2022/05/13 11:35:38;;;;;;;;;6.00;4.50;;;;;34.44;100.00;101256.09;5079074;27;51257;-45
2022/05/13 11:38:53;;;;;;;;;5.25;3.75;;;;;34.52;100.00;101256.22;5075330;27;51383;-46
2022/05/13 11:41:53;;;;;;;;;5.00;5.00;;;;;34.56;100.00;101273.34;5069482;27;51577;-47
2022/05/13 11:45:02;;;;;;;;;4.25;4.25;;;;;34.68;100.00;101265.75;5082296;27;51525;-47
2022/05/13 11:48:10;;;;;;;;;5.50;4.25;;;;;34.73;100.00;101261.50;5058915;27;51058;-45
2022/05/13 11:51:11;;;;;;;;;4.00;4.00;;;;;34.70;100.00;101259.06;5083051;27;51217;-46
2022/05/13 11:54:02;;;;;;;;;5.25;4.25;;;;;34.65;100.00;101241.19;5081659;27;51187;-49
2022/05/13 11:56:46;;;;;;;;;4.00;4.00;;;;;34.48;100.00;101229.91;5073436;27;51146;-49
2022/05/13 11:59:42;;;;;;;;;4.25;3.00;;;;;34.28;100.00;101209.75;5062666;28;51339;-48
2022/05/13 12:02:49;;;;;;;;;5.75;5.75;;;;;34.22;100.00;101213.09;5062401;28;51066;-46
2022/05/13 12:05:55;;;;;;;;;3.25;3.25;;;;;34.22;100.00;101213.09;5062906;28;51107;-48
2022/05/13 12:08:44;;;;;;;;;5.00;3.50;;;;;34.19;100.00;101211.50;5078294;27;51596;-48
2022/05/13 12:11:49;;;;;;;;;9.00;4.25;;;;;34.20;100.00;101204.06;5062100;28;51453;-45
2022/05/13 12:15:24;;;;;;;;;5.25;5.25;;;;;34.23;100.00;101199.16;5062128;28;51049;-48
2022/05/13 12:18:27;;;;;;;;;7.25;5.00;;;;;34.25;100.00;101196.22;5069585;27;51015;-45
2022/05/13 12:21:21;;;;;;;;;6.25;4.00;;;;;34.23;100.00;101181.69;5084184;27;51276;-49
2022/05/13 12:24:11;;;;;;;;;5.00;5.00;;;;;34.17;100.00;101180.41;5084019;27;51117;-45
2022/05/13 12:27:00;;;;;;;;;7.75;4.00;;;;;34.20;100.00;101184.75;5082685;27;51282;-45
2022/05/13 12:30:23;;;;;;;;;4.50;3.25;;;;;34.26;100.00;101192.44;5081629;27;51611;-44
2022/05/13 12:33:24;;;;;;;;;7.00;5.00;;;;;34.22;100.00;101183.59;5082047;27;51126;-48
2022/05/13 12:39:46;;;;;;;;;6.50;4.25;;;;;34.15;100.00;101157.59;5047042;27;51276;-48
2022/05/13 12:42:52;;;;;;;;;5.25;4.50;;;;;34.12;100.00;101155.16;5081508;27;51197;-46
2022/05/13 12:45:37;;;;;;;;;9.50;6.00;;;;;34.13;100.00;101154.09;5082029;27;51059;-45
2022/05/13 12:48:21;;;;;;;;;5.00;3.75;;;;;34.14;100.00;101156.72;5081533;27;51508;-44
2022/05/13 12:51:12;;;;;;;;;4.25;4.00;;;;;34.14;100.00;101162.25;5081654;27;51171;-45
2022/05/13 12:53:57;;;;;;;;;4.00;4.00;;;;;34.13;100.00;101165.13;5081998;27;51466;-46
2022/05/13 12:56:46;;;;;;;;;5.75;5.25;;;;;34.19;100.00;101170.06;5065740;27;51126;-47
2022/05/13 12:59:35;;;;;;;;;4.00;4.00;;;;;34.28;100.00;101173.84;5058069;27;51151;-45
2022/05/13 13:02:23;;;;;;;;;6.50;5.00;;;;;34.39;100.00;101172.75;5084465;27;51580;-46
2022/05/13 13:05:28;;;;;;;;;4.00;4.00;;;;;34.43;100.00;101161.28;5077199;27;51757;-49
2022/05/13 13:08:18;;;;;;;;;5.75;3.75;;;;;34.40;100.00;101169.03;5047607;28;51071;-44
2022/05/13 13:11:33;;;;;;;;;7.25;3.75;;;;;34.37;100.00;101163.75;5044583;28;51180;-48
2022/05/13 13:14:33;;;;;;;;;5.50;4.00;;;;;34.33;100.00;101167.88;5080719;27;52044;-47
2022/05/13 13:22:51;;;;;;;;;5.00;5.00;;;;;34.05;100.00;101146.59;5016592;28;51394;-53
2022/05/13 13:25:43;;;;;;;;;3.25;3.25;;;;;33.97;100.00;101144.56;5018084;28;51167;-53